Time;durP1;ratioP1;P1;durP2;ratioP2;P2;SDS_P1;SDS_P2;PMS_P1;PMS_P2;Temp;Humidity;BMP_temperature;BMP_pressure;BME280_temperature;BME280_humidity;BME280_pressure;Samples;Min_cycle;Max_cycle;Signal;HPM_P1;HPM_P2
2021/03/04 00:01:46;;;;;;;37.53;22.67;;;;;;;8.14;64.20;100986.59;5042759;28;20057;-74
2021/03/04 00:04:17;;;;;;;34.88;21.80;;;;;;;8.09;64.19;100984.66;5043036;28;20057;-74
2021/03/04 00:06:46;;;;;;;34.40;22.33;;;;;;;8.04;64.86;100990.25;5043533;28;20057;-74
2021/03/04 00:09:14;;;;;;;37.25;22.70;;;;;;;8.02;64.51;100981.38;5058660;28;20048;-74
2021/03/04 00:11:46;;;;;;;38.67;21.83;;;;;;;7.95;64.62;100982.81;5062898;28;20060;-74
2021/03/04 00:14:24;;;;;;;34.65;21.90;;;;;;;7.91;64.69;100980.56;5062789;28;20482;-74
2021/03/04 00:16:52;;;;;;;41.40;23.77;;;;;;;7.82;64.50;100975.94;5063644;28;20068;-74
2021/03/04 00:19:23;;;;;;;40.28;22.70;;;;;;;7.77;64.34;100973.16;5062874;28;20053;-74
2021/03/04 00:22:01;;;;;;;39.63;23.30;;;;;;;7.77;64.49;100974.00;5062633;28;20060;-74
2021/03/04 00:24:33;;;;;;;34.63;21.58;;;;;;;7.74;64.20;100963.47;5059630;28;20056;-75
2021/03/04 00:27:03;;;;;;;41.60;24.45;;;;;;;7.70;64.75;100954.88;5062802;28;20067;-75
2021/03/04 00:29:32;;;;;;;44.45;23.17;;;;;;;7.65;64.62;100949.38;5062459;28;20061;-74
2021/03/04 00:32:01;;;;;;;36.17;22.48;;;;;;;7.61;64.72;100955.75;5062522;28;20059;-74
2021/03/04 00:34:29;;;;;;;39.60;23.90;;;;;;;7.56;64.34;100953.84;5062313;28;20478;-74
2021/03/04 00:37:00;;;;;;;37.95;23.10;;;;;;;7.50;64.72;100952.19;5062154;28;20049;-74
2021/03/04 00:39:29;;;;;;;40.17;24.00;;;;;;;7.43;64.92;100962.72;5051187;28;20403;-75
2021/03/04 00:41:57;;;;;;;42.70;23.88;;;;;;;7.35;65.00;100966.94;5042317;28;20072;-74
2021/03/04 00:44:29;;;;;;;36.38;23.30;;;;;;;7.34;64.96;100958.88;5042831;28;20057;-74
2021/03/04 00:46:57;;;;;;;42.10;24.52;;;;;;;7.28;65.52;100952.53;5042442;28;20049;-74
2021/03/04 00:49:25;;;;;;;39.88;24.17;;;;;;;7.25;65.48;100962.22;5040772;28;20501;-74
2021/03/04 00:51:54;;;;;;;40.67;23.35;;;;;;;7.20;65.48;100965.03;5041193;28;20053;-74
2021/03/04 00:54:23;;;;;;;42.20;23.40;;;;;;;7.15;65.04;100962.25;5041503;28;20053;-74
2021/03/04 00:56:51;;;;;;;36.20;22.08;;;;;;;7.10;65.53;100963.09;5042821;28;20081;-74
2021/03/04 00:59:22;;;;;;;42.58;25.10;;;;;;;7.07;65.78;100969.16;5041999;28;20058;-75
2021/03/04 01:01:52;;;;;;;44.33;23.63;;;;;;;7.04;65.72;100957.84;5042144;28;20052;-74
2021/03/04 01:04:22;;;;;;;39.00;21.90;;;;;;;7.01;66.26;100955.59;5042046;28;20068;-74
2021/03/04 01:06:50;;;;;;;;;;;;;;;7.00;66.83;100953.97;5042473;28;20049;-74
2021/03/04 01:09:19;;;;;;;40.80;23.08;;;;;;;6.99;65.63;100947.59;5042087;28;19928;-74
2021/03/04 01:11:50;;;;;;;41.85;23.98;;;;;;;7.00;65.85;100940.94;5041040;28;20062;-74
2021/03/04 01:14:18;;;;;;;45.53;26.25;;;;;;;6.97;66.76;100937.88;5042069;28;20063;-74
2021/03/04 01:16:47;;;;;;;43.17;25.55;;;;;;;6.95;67.00;100935.41;5041595;28;20045;-74
2021/03/04 01:19:16;;;;;;;42.40;25.27;;;;;;;6.94;67.05;100950.34;5041135;28;20061;-74
2021/03/04 01:21:47;;;;;;;37.95;23.98;;;;;;;6.92;66.74;100944.28;5040864;28;20061;-74
2021/03/04 01:24:16;;;;;;;47.40;26.75;;;;;;;6.91;66.76;100942.63;5048570;28;20086;-74
2021/03/04 01:26:49;;;;;;;55.47;28.17;;;;;;;6.93;67.08;100939.56;5059658;28;20041;-74
2021/03/04 01:29:25;;;;;;;43.60;26.48;;;;;;;6.90;67.01;100938.19;5060251;28;20060;-74
2021/03/04 01:31:59;;;;;;;52.47;27.42;;;;;;;6.96;67.07;100925.16;5059892;28;20073;-73
2021/03/04 01:34:28;;;;;;;53.53;28.63;;;;;;;6.98;66.71;100925.72;5061091;28;20053;-74
2021/03/04 01:37:01;;;;;;;44.58;27.30;;;;;;;7.02;66.82;100924.06;5060966;28;20049;-74
2021/03/04 01:39:30;;;;;;;47.75;26.40;;;;;;;7.03;67.68;100922.94;5060405;28;20052;-74
2021/03/04 01:41:58;;;;;;;41.17;25.02;;;;;;;7.09;66.90;100916.25;5059481;28;20057;-74
2021/03/04 01:44:26;;;;;;;45.17;25.73;;;;;;;7.14;66.94;100913.50;5060214;28;20057;-74
2021/03/04 01:46:59;;;;;;;41.35;25.05;;;;;;;7.19;66.37;100907.13;5060730;28;20051;-74
2021/03/04 01:49:31;;;;;;;43.50;26.75;;;;;;;7.22;66.37;100910.13;5059607;28;20049;-74
2021/03/04 01:52:03;;;;;;;44.42;25.73;;;;;;;7.22;67.20;100907.38;5059816;28;20069;-74
2021/03/04 01:54:31;;;;;;;42.92;26.15;;;;;;;7.23;67.32;100900.72;5057698;28;20056;-74
2021/03/04 01:57:00;;;;;;;43.33;25.13;;;;;;;7.26;67.27;100894.59;5059268;28;20053;-74
2021/03/04 01:59:29;;;;;;;41.80;24.95;;;;;;;7.31;67.72;100891.84;5061015;28;20060;-74
2021/03/04 02:02:00;;;;;;;42.97;26.25;;;;;;;7.35;67.65;100883.78;5052417;28;20057;-74
2021/03/04 02:04:30;;;;;;;47.63;26.98;;;;;;;7.40;67.14;100882.94;5038602;28;20068;-74
2021/03/04 02:07:10;;;;;;;44.47;25.70;;;;;;;7.46;66.75;100866.00;5038283;28;20049;-74
2021/03/04 02:09:41;;;;;;;;;;;;;;;7.46;67.09;100870.72;5039972;28;20049;-74
2021/03/04 02:12:17;;;;;;;47.53;26.40;;;;;;;7.46;66.92;100868.78;5040108;28;20370;-74
2021/03/04 02:14:55;;;;;;;38.90;23.92;;;;;;;7.47;66.82;100862.09;5039613;28;20064;-74
2021/03/04 02:17:33;;;;;;;43.78;25.83;;;;;;;7.46;67.00;100873.50;5039690;28;20057;-74
2021/03/04 02:20:05;;;;;;;48.72;27.92;;;;;;;7.51;67.03;100865.97;5039196;28;20053;-74
2021/03/04 02:23:04;;;;;;;41.40;27.98;;;;;;;7.54;65.61;100856.28;5037404;28;20053;-74
2021/03/04 02:25:50;;;;;;;42.28;27.63;;;;;;;7.57;66.11;100866.78;5038773;28;20061;-74
2021/03/04 02:28:21;;;;;;;38.67;22.67;;;;;;;7.62;66.09;100872.31;5039708;28;20383;-74
2021/03/04 02:30:49;;;;;;;36.40;22.63;;;;;;;7.69;66.21;100863.69;5035848;28;20046;-74
2021/03/04 02:33:19;;;;;;;34.75;22.30;;;;;;;7.72;65.95;100863.91;5038820;28;20056;-74
2021/03/04 02:35:47;;;;;;;38.45;23.77;;;;;;;7.71;66.46;100853.97;5053086;28;20056;-74
2021/03/04 02:38:18;;;;;;;36.83;22.10;;;;;;;7.72;66.18;100860.31;5053079;28;20056;-74
2021/03/04 02:40:47;;;;;;;41.88;23.75;;;;;;;7.72;66.16;100857.56;5053027;28;20060;-74
2021/03/04 02:43:16;;;;;;;38.85;24.70;;;;;;;7.68;65.89;100865.59;5052969;28;20052;-74
2021/03/04 02:45:44;;;;;;;43.72;25.00;;;;;;;7.68;66.45;100864.78;5052750;28;20049;-74
2021/03/04 02:48:12;;;;;;;41.58;24.90;;;;;;;7.61;66.05;100864.28;5052033;28;20076;-74
2021/03/04 02:50:41;;;;;;;38.13;22.60;;;;;;;7.63;66.33;100862.88;5047674;28;20046;-74
2021/03/04 02:53:11;;;;;;;39.63;24.05;;;;;;;7.63;65.91;100856.50;5032582;28;20061;-74
2021/03/04 02:55:39;;;;;;;40.63;25.85;;;;;;;7.56;66.22;100856.81;5033069;28;20057;-74
2021/03/04 02:58:07;;;;;;;37.70;23.92;;;;;;;7.60;65.90;100857.91;5032878;28;20045;-74
2021/03/04 03:00:35;;;;;;;41.22;25.90;;;;;;;7.61;66.65;100851.25;5032957;28;20056;-74
2021/03/04 03:03:07;;;;;;;42.58;25.88;;;;;;;7.55;66.93;100851.56;5032685;28;20056;-75
2021/03/04 03:05:35;;;;;;;46.17;26.20;;;;;;;7.52;67.25;100851.00;5033985;28;20431;-75
2021/03/04 03:08:04;;;;;;;44.50;25.40;;;;;;;7.57;67.57;100847.38;5033174;28;20511;-75
2021/03/04 03:10:32;;;;;;;44.80;25.65;;;;;;;7.61;67.75;100851.25;5033058;28;20056;-75
2021/03/04 03:13:00;;;;;;;50.65;27.23;;;;;;;7.61;68.31;100845.69;5032895;28;20053;-75
2021/03/04 03:15:28;;;;;;;43.40;26.48;;;;;;;7.67;67.69;100841.78;5032703;28;20057;-75
2021/03/04 03:17:55;;;;;;;46.10;27.40;;;;;;;7.71;68.23;100833.72;5032941;28;20054;-75
2021/03/04 03:20:24;;;;;;;48.92;28.48;;;;;;;7.78;67.57;100827.84;5032884;28;20061;-75
2021/03/04 03:22:53;;;;;;;41.13;27.13;;;;;;;7.83;67.75;100831.44;5032763;28;20049;-75
2021/03/04 03:25:20;;;;;;;42.97;26.05;;;;;;;7.92;67.79;100834.44;5033350;28;20053;-75
2021/03/04 03:27:47;;;;;;;43.70;26.08;;;;;;;7.97;67.70;100837.16;5033918;28;20383;-75
2021/03/04 03:30:17;;;;;;;42.33;26.83;;;;;;;8.04;67.38;100834.91;5032700;28;20056;-75
2021/03/04 03:32:49;;;;;;;51.78;29.20;;;;;;;8.07;67.76;100831.53;5032910;28;20054;-75
2021/03/04 03:35:16;;;;;;;47.83;26.92;;;;;;;8.12;67.46;100825.13;5053355;28;20049;-75
2021/03/04 03:37:46;;;;;;;43.78;27.95;;;;;;;8.22;67.44;100825.03;5052479;28;20475;-75
2021/03/04 03:40:15;;;;;;;40.00;25.63;;;;;;;8.28;67.54;100829.44;5050619;28;20064;-75
2021/03/04 03:42:44;;;;;;;44.00;25.95;;;;;;;8.29;67.24;100811.66;5032843;28;20058;-75
2021/03/04 03:45:16;;;;;;;45.08;27.02;;;;;;;8.35;67.19;100815.22;5032986;28;20068;-75
2021/03/04 03:47:44;;;;;;;45.63;26.65;;;;;;;8.35;67.04;100815.22;5036313;28;20053;-75
2021/03/04 03:50:15;;;;;;;39.00;25.77;;;;;;;8.39;66.65;100801.59;5033266;28;20050;-75
2021/03/04 03:52:43;;;;;;;45.60;27.98;;;;;;;8.37;66.87;100801.88;5033940;28;20061;-75
2021/03/04 03:55:12;;;;;;;44.70;28.60;;;;;;;8.39;66.95;100788.53;5034253;28;20510;-75
2021/03/04 03:57:41;;;;;;;52.10;30.10;;;;;;;8.39;66.86;100788.53;5033269;28;20053;-75
2021/03/04 04:00:09;;;;;;;52.03;32.13;;;;;;;8.37;67.18;100790.78;5033921;28;20053;-75
2021/03/04 04:02:38;;;;;;;48.60;29.83;;;;;;;8.28;67.21;100789.75;5032775;28;20502;-75
2021/03/04 04:05:06;;;;;;;50.47;30.58;;;;;;;8.25;67.38;100785.63;5035008;28;20057;-75
2021/03/04 04:07:33;;;;;;;50.80;30.48;;;;;;;8.25;66.97;100773.66;5035810;28;20462;-75
2021/03/04 04:10:01;;;;;;;43.17;29.15;;;;;;;8.25;67.30;100760.66;5036650;28;20054;-75
2021/03/04 04:12:30;;;;;;;51.60;30.33;;;;;;;8.24;67.65;100763.69;5035909;28;20056;-75
2021/03/04 04:14:57;;;;;;;54.35;30.88;;;;;;;8.22;67.17;100746.50;5036034;28;20049;-75
2021/03/04 04:17:24;;;;;;;50.22;30.38;;;;;;;8.13;67.85;100758.25;5036172;28;20054;-75
2021/03/04 04:19:51;;;;;;;53.78;31.42;;;;;;;8.08;68.11;100763.84;5035425;28;20057;-75
2021/03/04 04:22:18;;;;;;;50.58;30.02;;;;;;;8.07;67.92;100762.19;5035119;28;20057;-75
2021/03/04 04:24:45;;;;;;;48.15;30.00;;;;;;;8.09;67.86;100759.94;5035358;28;20053;-75
2021/03/04 04:27:12;;;;;;;49.22;29.98;;;;;;;8.09;68.01;100748.03;5035177;28;20459;-75
2021/03/04 04:29:42;;;;;;;47.58;29.90;;;;;;;8.11;67.42;100735.50;5034848;28;20049;-75
2021/03/04 04:32:09;;;;;;;45.65;27.85;;;;;;;8.12;67.90;100741.88;5036055;28;20054;-74
2021/03/04 04:34:36;;;;;;;45.42;27.10;;;;;;;8.13;67.22;100726.91;5054607;28;20060;-75
2021/03/04 04:37:05;;;;;;;46.67;28.50;;;;;;;8.07;67.68;100731.66;5055061;28;20068;-75
2021/03/04 04:39:32;;;;;;;46.03;28.20;;;;;;;8.08;67.28;100724.16;5054986;28;20053;-75
2021/03/04 04:41:58;;;;;;;48.70;30.50;;;;;;;8.06;67.18;100715.31;5042172;28;20057;-75
2021/03/04 04:44:25;;;;;;;57.20;32.75;;;;;;;8.00;67.48;100709.00;5034954;28;20049;-75
2021/03/04 04:46:53;;;;;;;59.90;33.40;;;;;;;7.91;67.98;100716.25;5035047;28;20053;-74
2021/03/04 04:49:20;;;;;;;59.15;33.92;;;;;;;7.89;68.36;100721.28;5035179;28;20491;-75
2021/03/04 04:51:46;;;;;;;58.85;33.53;;;;;;;7.84;68.81;100715.78;5034393;28;20060;-75
2021/03/04 04:54:13;;;;;;;51.17;31.08;;;;;;;7.78;68.73;100719.72;5035073;28;20407;-75
2021/03/04 04:56:40;;;;;;;48.20;29.02;;;;;;;7.67;68.42;100705.94;5035091;28;20049;-75
2021/03/04 04:59:07;;;;;;;50.75;29.25;;;;;;;7.59;68.57;100698.22;5035174;28;20064;-75
2021/03/04 05:01:34;;;;;;;51.95;31.45;;;;;;;7.53;69.22;100702.97;5034738;28;20061;-75
2021/03/04 05:04:02;;;;;;;50.60;30.77;;;;;;;7.52;69.29;100706.88;5034760;28;20576;-75
2021/03/04 05:06:28;;;;;;;51.10;29.90;;;;;;;7.47;69.74;100704.13;5034538;28;20057;-75
2021/03/04 05:08:55;;;;;;;56.05;31.30;;;;;;;7.42;69.40;100708.91;5034705;28;20064;-75
2021/03/04 05:11:22;;;;;;;59.38;33.90;;;;;;;7.39;69.74;100712.22;5044616;28;20057;-74
2021/03/04 05:13:49;;;;;;;57.33;33.65;;;;;;;7.35;69.33;100722.22;5054387;28;20056;-75
2021/03/04 05:16:16;;;;;;;60.55;35.20;;;;;;;7.29;69.65;100729.75;5054148;28;20422;-75
2021/03/04 05:18:42;;;;;;;58.67;33.83;;;;;;;7.27;69.99;100718.97;5053684;28;20049;-75
2021/03/04 05:21:10;;;;;;;60.70;33.97;;;;;;;7.26;70.56;100735.84;5034369;28;20061;-75
2021/03/04 05:23:37;;;;;;;56.50;32.00;;;;;;;7.25;70.36;100723.94;5035364;28;20050;-75
2021/03/04 05:26:04;;;;;;;59.17;31.77;;;;;;;7.26;70.15;100730.31;5033880;28;20491;-75
2021/03/04 05:28:31;;;;;;;52.65;30.92;;;;;;;7.29;70.60;100735.31;5034753;28;20069;-75
2021/03/04 05:30:58;;;;;;;53.78;30.05;;;;;;;7.34;69.76;100738.03;5033878;28;20065;-75
2021/03/04 05:33:24;;;;;;;49.70;28.75;;;;;;;7.32;70.11;100734.72;5040432;28;20053;-75
2021/03/04 05:35:51;;;;;;;52.22;29.30;;;;;;;7.37;69.01;100729.16;5053589;28;20061;-75
2021/03/04 05:38:19;;;;;;;48.97;27.33;;;;;;;7.40;68.76;100734.13;5054163;28;20044;-75
2021/03/04 05:40:46;;;;;;;50.53;28.75;;;;;;;7.42;68.21;100736.59;5054011;28;20053;-75
2021/03/04 05:43:13;;;;;;;45.95;27.15;;;;;;;7.42;68.51;100731.06;5053046;28;20075;-75
2021/03/04 05:45:41;;;;;;;44.60;28.20;;;;;;;7.39;68.17;100720.53;5053724;28;20049;-75
2021/03/04 05:48:09;;;;;;;44.95;28.08;;;;;;;7.38;67.92;100716.13;5054437;28;20370;-75
2021/03/04 05:50:43;;;;;;;44.17;27.85;;;;;;;7.35;67.97;100705.59;5054080;28;20053;-75
2021/03/04 05:53:13;;;;;;;48.45;27.38;;;;;;;7.30;68.30;100707.28;5048178;28;20052;-75
2021/03/04 05:55:44;;;;;;;49.20;29.67;;;;;;;7.24;68.41;100702.88;5037083;28;20049;-75
2021/03/04 05:58:11;;;;;;;52.33;31.55;;;;;;;7.20;68.75;100701.84;5053860;28;20052;-75
2021/03/04 06:00:40;;;;;;;50.80;31.38;;;;;;;7.18;68.84;100695.75;5053379;28;20057;-75
2021/03/04 06:03:07;;;;;;;50.88;30.05;;;;;;;7.21;69.12;100697.94;5053681;28;20048;-75
2021/03/04 06:05:34;;;;;;;47.05;29.38;;;;;;;7.25;69.04;100685.16;5048160;28;20049;-75
2021/03/04 06:08:03;;;;;;;55.25;31.30;;;;;;;7.27;69.23;100676.56;5033086;28;20060;-75
2021/03/04 06:10:31;;;;;;;52.50;30.48;;;;;;;7.28;69.30;100683.75;5033453;28;20041;-75
2021/03/04 06:12:59;;;;;;;54.55;32.28;;;;;;;7.27;69.50;100669.09;5036211;28;20053;-75
2021/03/04 06:15:27;;;;;;;52.80;32.53;;;;;;;7.30;69.43;100659.38;5049610;28;20053;-75
2021/03/04 06:17:55;;;;;;;57.28;34.25;;;;;;;7.28;69.57;100659.63;5038484;28;20049;-75
2021/03/04 06:20:23;;;;;;;61.05;35.70;;;;;;;7.29;70.19;100664.09;5045194;28;20053;-75
2021/03/04 06:22:51;;;;;;;61.72;37.15;;;;;;;7.30;70.10;100664.91;5049423;28;20052;-75
2021/03/04 06:25:21;;;;;;;61.03;35.42;;;;;;;7.34;70.13;100668.75;5052282;28;20510;-75
2021/03/04 06:27:47;;;;;;;;;;;;;;;7.30;69.49;100665.72;5053515;28;20064;-75
2021/03/04 06:30:17;;;;;;;73.13;35.95;;;;;;;7.34;69.42;100657.66;5052676;28;20050;-75
2021/03/04 06:32:55;;;;;;;63.88;37.38;;;;;;;7.39;70.37;100656.78;5051976;28;20502;-74
2021/03/04 06:35:24;;;;;;;74.18;41.35;;;;;;;7.47;70.18;100667.28;5052640;28;20053;-74
2021/03/04 06:37:51;;;;;;;71.20;41.13;;;;;;;7.54;69.38;100681.66;5052687;28;20430;-74
2021/03/04 06:40:21;;;;;;;63.33;38.03;;;;;;;7.58;69.35;100674.41;5035259;28;20049;-74
2021/03/04 06:42:49;;;;;;;60.85;36.40;;;;;;;7.64;69.21;100670.47;5032913;28;20053;-74
2021/03/04 06:45:30;;;;;;;60.40;36.47;;;;;;;7.73;68.96;100667.91;5033206;28;20049;-74
2021/03/04 06:48:11;;;;;;;59.65;35.00;;;;;;;7.78;68.30;100672.56;5033865;28;20049;-74
2021/03/04 06:50:39;;;;;;;60.35;35.92;;;;;;;7.80;68.77;100673.13;5032919;28;20049;-74
2021/03/04 06:53:17;;;;;;;63.90;39.80;;;;;;;7.91;68.75;100680.22;5033046;28;20510;-74
2021/03/04 06:55:51;;;;;;;60.90;37.78;;;;;;;7.99;69.20;100696.22;5035726;28;20487;-74
2021/03/04 06:58:26;;;;;;;50.90;32.13;;;;;;;8.04;68.07;100690.66;5032579;28;20069;-76
2021/03/04 07:01:05;;;;;;;54.10;31.73;;;;;;;8.11;68.37;100684.75;5043596;28;20049;-76
2021/03/04 07:03:39;;;;;;;53.95;33.50;;;;;;;8.22;67.94;100680.75;5035163;28;20084;-75
2021/03/04 07:06:07;;;;;;;51.25;33.25;;;;;;;8.31;67.51;100694.78;5043040;28;20045;-75
2021/03/04 07:08:36;;;;;;;62.05;36.85;;;;;;;8.41;67.71;100688.34;5033397;28;20053;-76
2021/03/04 07:11:04;;;;;;;61.15;37.15;;;;;;;8.50;67.67;100692.97;5037798;28;20056;-77
2021/03/04 07:13:33;;;;;;;70.03;41.30;;;;;;;8.65;66.29;100688.34;5039456;28;20064;-74
2021/03/04 07:16:08;;;;;;;72.72;43.80;;;;;;;8.74;66.23;100695.72;5048563;28;20049;-74
2021/03/04 07:18:39;;;;;;;77.43;43.70;;;;;;;8.78;67.00;100697.91;5046714;28;20388;-74
2021/03/04 07:21:08;;;;;;;93.70;48.10;;;;;;;8.83;66.91;100684.78;5050781;28;20083;-74
2021/03/04 07:23:38;;;;;;;94.50;51.03;;;;;;;8.93;66.35;100681.06;5050108;28;20075;-74
2021/03/04 07:26:08;;;;;;;86.22;46.33;;;;;;;9.02;66.63;100695.09;5044799;28;20057;-75
2021/03/04 07:28:37;;;;;;;81.57;44.67;;;;;;;9.08;66.24;100693.91;5053738;28;20049;-75
2021/03/04 07:31:07;;;;;;;88.70;47.40;;;;;;;9.12;65.93;100692.19;5050118;28;20033;-75
2021/03/04 07:33:35;;;;;;;99.55;52.58;;;;;;;9.18;65.44;100716.00;5052193;28;20041;-74
2021/03/04 07:36:06;;;;;;;110.32;52.38;;;;;;;9.19;65.84;100745.44;5052625;28;20072;-75
2021/03/04 07:38:34;;;;;;;116.25;55.80;;;;;;;9.19;65.62;100750.16;5046814;28;20379;-75
2021/03/04 07:41:09;;;;;;;105.43;54.47;;;;;;;9.20;65.87;100754.59;5052707;28;20057;-74
2021/03/04 07:43:47;;;;;;;96.63;52.38;;;;;;;9.11;66.08;100749.72;5053739;28;20048;-73
2021/03/04 07:46:28;;;;;;;93.10;52.50;;;;;;;9.13;66.19;100747.47;5048810;28;20063;-73
2021/03/04 07:48:56;;;;;;;93.65;51.95;;;;;;;9.14;65.67;100746.34;5052643;28;20055;-73
2021/03/04 07:51:23;;;;;;;94.75;54.25;;;;;;;9.11;66.33;100740.53;5045193;28;20377;-73
2021/03/04 07:53:52;;;;;;;94.60;51.78;;;;;;;9.11;66.19;100734.97;5054814;28;20505;-73
2021/03/04 07:56:26;;;;;;;94.18;52.95;;;;;;;9.13;66.33;100729.94;5044102;28;20049;-74
2021/03/04 07:58:54;;;;;;;89.78;51.17;;;;;;;9.15;65.88;100736.03;5054473;28;20060;-73
2021/03/04 08:01:24;;;;;;;94.40;51.97;;;;;;;9.18;65.97;100746.56;5050625;28;20049;-74
2021/03/04 08:03:51;;;;;;;96.18;53.53;;;;;;;9.10;66.14;100728.59;5054915;28;20049;-74
2021/03/04 08:06:18;;;;;;;87.90;51.03;;;;;;;9.16;65.54;100721.03;5054887;28;20045;-74
2021/03/04 08:08:47;;;;;;;88.07;49.80;;;;;;;9.21;65.50;100717.34;5052580;28;20136;-74
2021/03/04 08:11:25;;;;;;;89.57;50.30;;;;;;;9.23;65.56;100713.13;5055727;28;20049;-74
2021/03/04 08:13:52;;;;;;;89.18;51.15;;;;;;;9.22;65.85;100702.31;5054712;28;20060;-74
2021/03/04 08:16:21;;;;;;;91.95;52.50;;;;;;;9.18;65.99;100696.56;5054450;28;20045;-73
2021/03/04 08:18:55;;;;;;;92.53;52.13;;;;;;;9.14;66.71;100690.75;5050454;28;20511;-74
2021/03/04 08:21:22;;;;;;;105.82;56.30;;;;;;;9.10;66.79;100695.25;5042635;28;20394;-74
2021/03/04 08:23:50;;;;;;;108.10;56.40;;;;;;;9.01;67.21;100682.31;5052471;28;20056;-74
2021/03/04 08:26:22;;;;;;;112.90;56.97;;;;;;;9.00;67.85;100689.00;5035643;28;20061;-74
2021/03/04 08:28:49;;;;;;;111.57;58.00;;;;;;;8.90;67.50;100684.41;5041756;28;20509;-74
2021/03/04 08:31:17;;;;;;;116.70;58.67;;;;;;;8.84;68.25;100678.13;5054982;28;20053;-74
2021/03/04 08:33:55;;;;;;;112.95;57.72;;;;;;;8.74;68.82;100689.34;5054606;28;20075;-74
2021/03/04 08:36:22;;;;;;;121.30;61.28;;;;;;;8.73;68.99;100696.00;5055118;28;20076;-73
2021/03/04 08:38:49;;;;;;;123.93;61.63;;;;;;;8.72;68.78;100699.94;5049610;28;20065;-74
2021/03/04 08:41:21;;;;;;;129.60;63.35;;;;;;;8.65;69.33;100691.97;5043783;28;20076;-74
2021/03/04 08:43:49;;;;;;;132.85;64.32;;;;;;;8.72;69.76;100680.50;5054380;28;20055;-73
2021/03/04 08:46:18;;;;;;;125.88;61.50;;;;;;;8.80;70.03;100679.84;5053418;28;20053;-73
2021/03/04 08:48:46;;;;;;;121.25;60.08;;;;;;;8.80;70.19;100667.88;5049132;28;20124;-73
2021/03/04 08:51:14;;;;;;;127.30;65.22;;;;;;;8.80;70.69;100674.28;5052418;28;20053;-73
2021/03/04 08:53:41;;;;;;;142.20;66.63;;;;;;;8.83;70.81;100678.41;5051570;28;20049;-73
2021/03/04 08:56:10;;;;;;;136.43;62.17;;;;;;;8.90;70.75;100662.19;5053070;28;20052;-74
2021/03/04 08:58:42;;;;;;;144.82;62.78;;;;;;;8.89;70.76;100663.31;5052499;28;20411;-73
2021/03/04 09:01:09;;;;;;;133.75;65.03;;;;;;;8.93;70.46;100667.16;5051450;28;20432;-75
2021/03/04 09:03:37;;;;;;;143.82;63.72;;;;;;;8.91;71.10;100658.31;5049265;28;20517;-74
2021/03/04 09:06:06;;;;;;;123.70;58.33;;;;;;;8.93;70.39;100656.88;5052111;28;20060;-74
2021/03/04 09:08:35;;;;;;;120.60;58.42;;;;;;;8.92;70.05;100655.22;5050703;28;20482;-74
2021/03/04 09:11:02;;;;;;;129.88;60.83;;;;;;;8.88;71.38;100667.22;5054184;28;20053;-75
2021/03/04 09:13:29;;;;;;;107.13;54.45;;;;;;;8.90;71.30;100663.03;5053106;28;20060;-75
2021/03/04 09:16:02;;;;;;;92.15;48.70;;;;;;;8.97;70.84;100662.66;5050358;28;20124;-75
2021/03/04 09:18:30;;;;;;;75.93;43.85;;;;;;;9.04;70.83;100667.84;5044615;28;20061;-75
2021/03/04 09:21:01;;;;;;;66.70;40.03;;;;;;;9.04;70.10;100656.72;5054258;28;20053;-73
2021/03/04 09:23:28;;;;;;;57.25;35.30;;;;;;;9.09;69.02;100656.66;5049129;28;20049;-74
2021/03/04 09:25:57;;;;;;;51.15;33.70;;;;;;;9.08;69.09;100646.66;5048929;28;20053;-74
2021/03/04 09:28:25;;;;;;;41.70;28.80;;;;;;;9.17;68.83;100655.97;5050559;28;20490;-73
2021/03/04 09:30:52;;;;;;;39.45;26.95;;;;;;;9.22;68.50;100652.28;5042992;28;20049;-73
2021/03/04 09:33:20;;;;;;;34.63;24.02;;;;;;;9.26;67.75;100648.63;5050485;28;20398;-74
2021/03/04 09:36:00;;;;;;;32.45;22.90;;;;;;;9.30;67.75;100649.69;5051633;28;20421;-73
2021/03/04 09:38:29;;;;;;;37.20;24.50;;;;;;;9.32;68.47;100649.34;5050206;28;20052;-73
2021/03/04 09:41:08;;;;;;;36.42;25.30;;;;;;;9.28;67.67;100651.94;5048240;28;20059;-74
2021/03/04 09:43:40;;;;;;;35.75;24.05;;;;;;;9.31;67.49;100651.31;5052462;28;20516;-73
2021/03/04 09:46:07;;;;;;;30.95;21.90;;;;;;;9.33;67.31;100649.06;5051313;28;20053;-74
2021/03/04 09:48:37;;;;;;;37.42;25.25;;;;;;;9.32;67.40;100647.44;5049761;28;20045;-74
2021/03/04 09:51:04;;;;;;;34.97;24.02;;;;;;;9.31;66.94;100648.53;5052441;28;20064;-74
2021/03/04 09:53:31;;;;;;;34.80;24.73;;;;;;;9.28;66.99;100651.09;5048168;28;20056;-73
2021/03/04 09:56:04;;;;;;;35.13;24.63;;;;;;;9.27;66.25;100650.25;5048527;28;20052;-73
2021/03/04 09:58:31;;;;;;;33.13;22.30;;;;;;;9.27;66.15;100644.69;5053583;28;20052;-74
2021/03/04 10:00:58;;;;;;;33.38;23.40;;;;;;;9.28;66.08;100640.81;5050351;28;20053;-73
2021/03/04 10:03:32;;;;;;;43.95;27.65;;;;;;;9.21;67.03;100645.09;5044856;28;20049;-74
2021/03/04 10:05:59;;;;;;;70.22;35.35;;;;;;;9.16;67.35;100640.44;5037541;28;20053;-74
2021/03/04 10:08:36;;;;;;;34.95;21.90;;;;;;;9.18;66.29;100648.47;5052493;28;20394;-74
2021/03/04 10:11:06;;;;;;;30.80;23.27;;;;;;;9.19;65.75;100647.34;5047306;28;20041;-74
2021/03/04 10:13:33;;;;;;;33.75;24.02;;;;;;;9.05;65.99;100653.66;5050185;28;20045;-74
2021/03/04 10:16:09;;;;;;;36.47;24.30;;;;;;;9.09;67.11;100646.38;5051107;28;20056;-74
2021/03/04 10:18:36;;;;;;;34.83;23.63;;;;;;;9.14;66.40;100642.69;5052171;28;20408;-74
2021/03/04 10:21:03;;;;;;;36.45;24.88;;;;;;;9.17;66.81;100642.06;5052230;28;20059;-74
2021/03/04 10:23:31;;;;;;;36.25;26.38;;;;;;;9.16;67.62;100651.56;5045764;28;20048;-73
2021/03/04 10:25:57;;;;;;;35.03;24.45;;;;;;;9.13;67.75;100638.25;5048764;28;20053;-74
2021/03/04 10:28:25;;;;;;;35.97;26.08;;;;;;;9.15;68.01;100649.88;5050687;28;20140;-74
2021/03/04 10:30:52;;;;;;;43.47;26.55;;;;;;;9.22;67.18;100644.78;5052120;28;20410;-73
2021/03/04 10:33:19;;;;;;;35.90;24.38;;;;;;;9.33;66.77;100648.25;5049530;28;20437;-74
2021/03/04 10:35:48;;;;;;;37.97;24.50;;;;;;;9.42;67.10;100646.41;5051493;28;20053;-73
2021/03/04 10:38:15;;;;;;;37.90;25.77;;;;;;;9.45;67.95;100643.03;5050592;28;20049;-74
2021/03/04 10:40:42;;;;;;;35.10;25.58;;;;;;;9.56;67.10;100652.03;5042946;28;20060;-74
2021/03/04 10:43:09;;;;;;;28.95;21.13;;;;;;;9.63;66.13;100644.13;5052270;28;20064;-74
2021/03/04 10:45:37;;;;;;;29.35;21.83;;;;;;;9.70;65.38;100647.38;5047747;28;20048;-74
2021/03/04 10:48:04;;;;;;;34.08;21.70;;;;;;;9.84;65.01;100641.00;5052422;28;20057;-74
2021/03/04 10:50:31;;;;;;;32.20;22.45;;;;;;;9.97;65.57;100642.97;5050224;28;20506;-73
2021/03/04 10:53:00;;;;;;;34.83;23.65;;;;;;;10.09;66.01;100640.53;5053148;28;20049;-74
2021/03/04 10:55:28;;;;;;;32.90;23.40;;;;;;;10.22;65.26;100646.44;5045292;28;20049;-74
2021/03/04 10:57:54;;;;;;;29.40;22.27;;;;;;;10.27;64.31;100643.56;5045189;28;20060;-74
2021/03/04 11:00:22;;;;;;;27.75;21.17;;;;;;;10.35;63.47;100637.28;5050371;28;20336;-73
2021/03/04 11:02:50;;;;;;;30.45;22.17;;;;;;;10.50;63.57;100637.00;5051656;28;20052;-72
2021/03/04 11:05:17;;;;;;;27.80;20.33;;;;;;;10.73;61.99;100637.91;5048311;28;20053;-73
2021/03/04 11:07:45;;;;;;;27.98;20.63;;;;;;;10.79;62.35;100646.94;5052843;28;20053;-73
2021/03/04 11:10:13;;;;;;;27.42;19.80;;;;;;;10.82;61.64;100640.78;5047949;28;20498;-73
2021/03/04 11:12:39;;;;;;;29.63;21.80;;;;;;;10.71;62.88;100642.13;5046353;28;20067;-73
2021/03/04 11:15:07;;;;;;;26.25;19.15;;;;;;;10.66;62.69;100639.44;5042618;28;20045;-73
2021/03/04 11:17:34;;;;;;;26.67;21.38;;;;;;;10.54;63.79;100640.81;5042511;28;20049;-73
2021/03/04 11:20:02;;;;;;;30.10;21.98;;;;;;;10.55;63.40;100642.44;5055978;28;20055;-73
2021/03/04 11:22:29;;;;;;;29.63;22.95;;;;;;;10.49;63.33;100637.28;5056470;28;20063;-73
2021/03/04 11:24:56;;;;;;;27.90;21.00;;;;;;;10.46;63.53;100633.16;5051848;28;20063;-73
2021/03/04 11:27:23;;;;;;;25.80;19.30;;;;;;;10.53;62.83;100630.78;5050442;28;20064;-73